Time;durP1;ratioP1;P1;durP2;ratioP2;P2;SDS_P1;SDS_P2;PMS_P1;PMS_P2;Temp;Humidity;BMP_temperature;BMP_pressure;BME280_temperature;BME280_humidity;BME280_pressure;Samples;Min_cycle;Max_cycle;Signal;HPM_P1;HPM_P2
2023/08/14 00:00:22;;;;;;;1999.90;999.90;;;18.10;99.90;;;;;;5053736;28;20206;-69
2023/08/14 00:02:47;;;;;;;1999.90;999.90;;;18.00;99.90;;;;;;5046960;28;20183;-69
2023/08/14 00:05:13;;;;;;;1999.90;999.90;;;18.10;99.90;;;;;;5052207;28;20231;-70
2023/08/14 00:07:38;;;;;;;1999.90;999.90;;;18.00;99.90;;;;;;5049951;28;20223;-70
2023/08/14 00:10:04;;;;;;;1999.90;999.90;;;18.00;99.90;;;;;;5056823;28;20187;-69
2023/08/14 00:12:30;;;;;;;1999.90;999.90;;;18.00;99.90;;;;;;5052265;28;20251;-69
2023/08/14 00:14:55;;;;;;;1999.90;999.90;;;17.90;99.90;;;;;;5052535;28;20612;-69
2023/08/14 00:17:21;;;;;;;1999.90;999.90;;;17.80;99.90;;;;;;5056682;28;20176;-70
2023/08/14 00:19:47;;;;;;;1999.90;999.90;;;17.70;99.90;;;;;;5055562;28;20252;-70
2023/08/14 00:22:12;;;;;;;1999.90;999.90;;;17.70;99.90;;;;;;5047351;28;20198;-69
2023/08/14 00:24:38;;;;;;;1999.90;999.90;;;17.60;99.90;;;;;;5055562;28;20413;-69
2023/08/14 00:27:03;;;;;;;1999.90;999.90;;;17.60;99.90;;;;;;5053397;28;20163;-69
2023/08/14 00:29:29;;;;;;;1999.90;999.90;;;17.50;99.90;;;;;;5053066;28;20196;-69
2023/08/14 00:31:54;;;;;;;1999.90;999.90;;;17.40;99.90;;;;;;5044664;28;20168;-69
2023/08/14 00:34:20;;;;;;;1999.90;999.90;;;17.50;99.90;;;;;;5052835;28;20184;-68
2023/08/14 00:36:46;;;;;;;1999.90;999.90;;;17.50;99.90;;;;;;5044802;28;20262;-69
2023/08/14 00:39:11;;;;;;;1999.90;999.90;;;17.50;99.90;;;;;;5052808;28;20213;-68
2023/08/14 00:41:37;;;;;;;1999.90;999.90;;;17.40;99.90;;;;;;5044350;28;20203;-69
2023/08/14 00:44:03;;;;;;;1999.90;999.90;;;17.30;99.90;;;;;;5053035;28;20172;-69
2023/08/14 00:46:30;;;;;;;1999.90;999.90;;;17.30;99.90;;;;;;5049011;28;20427;-69
2023/08/14 00:48:55;;;;;;;1999.90;999.90;;;17.30;99.90;;;;;;5048609;28;20439;-69
2023/08/14 00:51:23;;;;;;;1999.90;999.90;;;17.20;99.90;;;;;;5049480;28;20407;-69
2023/08/14 00:53:50;;;;;;;1999.90;999.90;;;17.20;99.90;;;;;;5048663;28;20171;-69
2023/08/14 00:56:16;;;;;;;1999.90;999.90;;;17.20;99.90;;;;;;5055469;28;20411;-69
2023/08/14 00:58:42;;;;;;;1999.90;999.90;;;17.20;99.90;;;;;;5055149;28;20504;-69
2023/08/14 01:01:08;;;;;;;1999.90;999.90;;;17.20;99.90;;;;;;5046444;28;20457;-69
2023/08/14 01:03:36;;;;;;;1999.90;999.90;;;17.30;99.90;;;;;;5054411;28;20164;-69
2023/08/14 01:06:02;;;;;;;1999.90;999.90;;;17.30;99.90;;;;;;5052240;28;20181;-69
2023/08/14 01:08:28;;;;;;;1999.90;999.90;;;17.30;99.90;;;;;;5044514;28;21113;-69
2023/08/14 01:11:05;;;;;;;1999.90;999.90;;;17.20;99.90;;;;;;5052341;28;20408;-69
2023/08/14 01:13:49;;;;;;;1999.90;999.90;;;17.10;99.90;;;;;;5052563;28;20768;-69
2023/08/14 01:16:20;;;;;;;1999.90;999.90;;;17.00;99.90;;;;;;5050241;28;20514;-69
2023/08/14 01:18:51;;;;;;;1999.90;999.90;;;17.10;99.90;;;;;;5046927;28;20519;-68
2023/08/14 01:21:17;;;;;;;1999.90;999.90;;;17.10;99.90;;;;;;5049312;28;20465;-69
2023/08/14 01:23:49;;;;;;;1999.90;999.90;;;17.10;99.90;;;;;;5046383;28;20421;-69
2023/08/14 01:26:15;;;;;;;1999.90;999.90;;;17.00;99.90;;;;;;5050296;28;20188;-68
2023/08/14 01:28:41;;;;;;;1999.90;999.90;;;17.10;99.90;;;;;;5045842;28;20430;-69
2023/08/14 01:31:06;;;;;;;1999.90;999.90;;;17.10;99.90;;;;;;5043389;28;20475;-68
2023/08/14 01:33:32;;;;;;;1999.90;999.90;;;17.10;99.90;;;;;;5052213;28;20424;-69
2023/08/14 01:36:07;;;;;;;1999.90;999.90;;;17.00;99.90;;;;;;5051707;28;20182;-69
2023/08/14 01:38:38;;;;;;;1999.90;999.90;;;17.00;99.90;;;;;;5051776;28;20605;-69
2023/08/14 01:41:16;;;;;;;1999.90;999.90;;;16.90;99.90;;;;;;5043372;28;20854;-69
2023/08/14 01:43:48;;;;;;;1999.90;999.90;;;16.80;99.90;;;;;;5052083;28;20401;-69
2023/08/14 01:46:15;;;;;;;1999.90;999.90;;;16.80;99.90;;;;;;5052212;28;20407;-68
2023/08/14 01:48:41;;;;;;;1999.90;999.90;;;16.80;99.90;;;;;;5051893;28;20451;-69
2023/08/14 01:51:09;;;;;;;1999.90;999.90;;;16.80;99.90;;;;;;5050192;28;20429;-68
2023/08/14 01:53:36;;;;;;;1999.90;999.90;;;16.90;99.90;;;;;;5044827;28;20778;-68
2023/08/14 01:56:01;;;;;;;1999.90;999.90;;;16.80;99.90;;;;;;5043488;28;20406;-68
2023/08/14 01:58:27;;;;;;;1999.90;999.90;;;16.80;99.90;;;;;;5051760;28;20498;-69
2023/08/14 02:00:53;;;;;;;1999.90;999.90;;;16.70;99.90;;;;;;5044691;28;20198;-69
2023/08/14 02:03:18;;;;;;;1999.90;999.90;;;16.80;99.90;;;;;;5051411;28;20682;-69
2023/08/14 02:05:44;;;;;;;1999.90;999.90;;;16.80;99.90;;;;;;5052121;28;20166;-69
2023/08/14 02:08:10;;;;;;;1999.90;999.90;;;16.80;99.90;;;;;;5044066;28;20167;-69
2023/08/14 02:10:35;;;;;;;1999.90;999.90;;;16.70;99.90;;;;;;5047407;28;20414;-69
2023/08/14 02:13:01;;;;;;;1999.90;999.90;;;16.70;99.90;;;;;;5049118;28;20228;-69
2023/08/14 02:15:27;;;;;;;1999.90;999.90;;;16.60;99.90;;;;;;5052833;28;20268;-69
2023/08/14 02:17:52;;;;;;;1999.90;999.90;;;16.70;99.90;;;;;;5036805;28;20576;-69
2023/08/14 02:20:18;;;;;;;1999.90;999.90;;;16.70;99.90;;;;;;5036690;28;20199;-69
2023/08/14 02:22:43;;;;;;;1999.90;999.90;;;16.70;99.90;;;;;;5046290;28;20670;-69
2023/08/14 02:25:09;;;;;;;1999.90;999.90;;;16.60;99.90;;;;;;5049492;28;20176;-69
2023/08/14 02:27:34;;;;;;;1999.90;999.90;;;16.60;99.90;;;;;;5051599;28;20217;-69
2023/08/14 02:30:00;;;;;;;1999.90;999.90;;;16.60;99.90;;;;;;5051360;28;20298;-69
2023/08/14 02:32:26;;;;;;;1999.90;999.90;;;16.60;99.90;;;;;;5043200;28;20173;-69
2023/08/14 02:34:55;;;;;;;1999.90;999.90;;;16.60;99.90;;;;;;5054674;28;20177;-69
2023/08/14 02:37:21;;;;;;;1999.90;999.90;;;16.50;99.90;;;;;;5050356;28;20621;-69
2023/08/14 02:39:47;;;;;;;1999.90;999.90;;;16.50;99.90;;;;;;5046174;28;20449;-69
2023/08/14 02:42:15;;;;;;;1999.90;999.90;;;16.40;99.90;;;;;;5042807;28;20206;-69
2023/08/14 02:44:41;;;;;;;1999.90;999.90;;;16.30;99.90;;;;;;5054231;28;20164;-69
2023/08/14 02:47:06;;;;;;;1999.90;999.90;;;16.20;99.90;;;;;;5055256;28;20417;-68
2023/08/14 02:49:32;;;;;;;1999.90;999.90;;;16.10;99.90;;;;;;5055152;28;20250;-69
2023/08/14 02:51:58;;;;;;;1999.90;999.90;;;16.20;99.90;;;;;;5054420;28;20185;-69
2023/08/14 02:54:23;;;;;;;1999.90;999.90;;;16.20;99.90;;;;;;5046713;28;20186;-69
2023/08/14 02:56:49;;;;;;;1999.90;999.90;;;16.10;99.90;;;;;;5070403;28;20177;-68
2023/08/14 02:59:15;;;;;;;1999.90;999.90;;;16.10;99.90;;;;;;5046656;28;20204;-69
2023/08/14 03:01:41;;;;;;;1999.90;999.90;;;16.00;99.90;;;;;;5054766;28;20631;-69
2023/08/14 03:04:06;;;;;;;1999.90;999.90;;;16.00;99.90;;;;;;5054970;28;20790;-69
2023/08/14 03:06:32;;;;;;;1999.90;999.90;;;16.00;99.90;;;;;;5054424;28;20261;-68
2023/08/14 03:08:58;;;;;;;1999.90;999.90;;;16.00;99.90;;;;;;5046045;28;20272;-69
2023/08/14 03:11:24;;;;;;;1999.90;999.90;;;16.00;99.90;;;;;;5051113;28;20183;-68
2023/08/14 03:13:50;;;;;;;1999.90;999.90;;;16.00;99.90;;;;;;5049741;28;20410;-68
2023/08/14 03:16:16;;;;;;;1999.90;999.90;;;16.00;99.90;;;;;;5052901;28;20198;-69
2023/08/14 03:18:41;;;;;;;1999.90;999.90;;;15.90;99.90;;;;;;5049166;28;20427;-69
2023/08/14 03:21:07;;;;;;;1999.90;999.90;;;15.90;99.90;;;;;;5052917;28;20209;-69
2023/08/14 03:23:33;;;;;;;1999.90;999.90;;;15.90;99.90;;;;;;5047221;28;20233;-69
2023/08/14 03:25:59;;;;;;;1999.90;999.90;;;15.90;99.90;;;;;;5055204;28;20427;-69
2023/08/14 03:28:24;;;;;;;1999.90;999.90;;;15.80;99.90;;;;;;5051428;28;20422;-69
2023/08/14 03:30:50;;;;;;;1999.90;999.90;;;15.80;99.90;;;;;;5049783;28;20175;-68
2023/08/14 03:33:16;;;;;;;1999.90;999.90;;;15.90;99.90;;;;;;5054203;28;20185;-68
2023/08/14 03:35:42;;;;;;;1999.90;999.90;;;15.90;99.90;;;;;;5050981;28;20896;-68
2023/08/14 03:38:07;;;;;;;1999.90;999.90;;;15.90;99.90;;;;;;5045799;28;20587;-69
2023/08/14 03:40:33;;;;;;;1999.90;999.90;;;15.80;99.90;;;;;;5049453;28;20201;-68
2023/08/14 03:42:58;;;;;;;1999.90;999.90;;;15.90;99.90;;;;;;5050264;28;20621;-69
2023/08/14 03:45:24;;;;;;;1999.90;999.90;;;15.80;99.90;;;;;;5054193;28;20202;-69
2023/08/14 03:47:49;;;;;;;1999.90;999.90;;;15.80;99.90;;;;;;5054110;28;20648;-69
2023/08/14 03:50:15;;;;;;;1999.90;999.90;;;15.80;99.90;;;;;;5051937;28;20216;-68
2023/08/14 03:52:41;;;;;;;1999.90;999.90;;;15.80;99.90;;;;;;5046036;28;20656;-69
2023/08/14 03:55:08;;;;;;;1999.90;999.90;;;15.70;99.90;;;;;;5050362;28;20535;-69
2023/08/14 03:57:33;;;;;;;1999.90;999.90;;;15.70;99.90;;;;;;5046783;28;20433;-69
2023/08/14 03:59:59;;;;;;;1999.90;999.90;;;15.70;99.90;;;;;;5053639;28;20513;-69
2023/08/14 04:02:25;;;;;;;1999.90;999.90;;;15.70;99.90;;;;;;5045195;28;20172;-69
2023/08/14 04:04:50;;;;;;;1999.90;999.90;;;15.60;99.90;;;;;;5053749;28;20623;-68
2023/08/14 04:07:16;;;;;;;1999.90;999.90;;;15.60;99.90;;;;;;5051070;28;20185;-69
2023/08/14 04:09:42;;;;;;;1999.90;999.90;;;15.50;99.90;;;;;;5047365;28;20219;-68
2023/08/14 04:12:09;;;;;;;1999.90;999.90;;;15.50;99.90;;;;;;5045158;28;20184;-68
2023/08/14 04:14:35;;;;;;;1999.90;999.90;;;15.50;99.90;;;;;;5053742;28;20183;-68
2023/08/14 04:17:01;;;;;;;1999.90;999.90;;;15.40;99.90;;;;;;5053572;28;20795;-69
2023/08/14 04:19:26;;;;;;;1999.90;999.90;;;15.40;99.90;;;;;;5053329;28;20443;-69
2023/08/14 04:21:52;;;;;;;1999.90;999.90;;;15.50;99.90;;;;;;5045184;28;20453;-68
2023/08/14 04:24:17;;;;;;;1999.90;999.90;;;15.50;99.90;;;;;;5045204;28;20257;-68
2023/08/14 04:26:43;;;;;;;1999.90;999.90;;;15.40;99.90;;;;;;5047408;28;20541;-68
2023/08/14 04:29:09;;;;;;;1999.90;999.90;;;15.40;99.90;;;;;;5050841;28;20228;-69
2023/08/14 04:31:39;;;;;;;1999.90;999.90;;;15.40;99.90;;;;;;5044662;28;20273;-69
2023/08/14 04:34:06;;;;;;;1999.90;999.90;;;15.50;99.90;;;;;;5053222;28;20402;-69
2023/08/14 04:36:32;;;;;;;1999.90;999.90;;;15.40;99.90;;;;;;5052894;28;20485;-69
2023/08/14 04:38:58;;;;;;;1999.90;999.90;;;15.40;99.90;;;;;;5051600;28;20454;-69
2023/08/14 04:41:28;;;;;;;1999.90;999.90;;;15.50;99.90;;;;;;5044364;28;20830;-68
2023/08/14 04:43:54;;;;;;;1999.90;999.90;;;15.50;99.90;;;;;;5054425;28;20496;-69
2023/08/14 04:46:36;;;;;;;1999.90;999.90;;;15.50;99.90;;;;;;5054803;28;20416;-69
2023/08/14 04:49:03;;;;;;;1999.90;999.90;;;15.50;99.90;;;;;;5046089;28;20437;-69
2023/08/14 04:51:29;;;;;;;1999.90;999.90;;;15.50;99.90;;;;;;5035129;28;20432;-69
2023/08/14 04:53:56;;;;;;;1999.90;999.90;;;15.50;99.90;;;;;;5045361;28;20955;-69
2023/08/14 04:56:21;;;;;;;1999.90;999.90;;;15.50;99.90;;;;;;5049290;28;20478;-69
2023/08/14 04:58:47;;;;;;;1999.90;999.90;;;15.60;99.90;;;;;;5048258;28;20432;-69
2023/08/14 05:01:13;;;;;;;1999.90;999.90;;;15.70;99.90;;;;;;5053048;28;20267;-69
2023/08/14 05:03:38;;;;;;;1999.90;999.90;;;15.70;99.90;;;;;;5045383;28;20501;-69
2023/08/14 05:06:04;;;;;;;1999.90;999.90;;;15.70;99.90;;;;;;5053473;28;20658;-69
2023/08/14 05:08:30;;;;;;;1999.90;999.90;;;15.80;99.90;;;;;;5049120;28;20225;-69
2023/08/14 05:10:56;;;;;;;1999.90;999.90;;;15.80;99.90;;;;;;5049475;28;20191;-69
2023/08/14 05:13:21;;;;;;;1999.90;999.90;;;15.90;99.90;;;;;;5054054;28;20416;-69
2023/08/14 05:15:49;;;;;;;1999.90;999.90;;;16.00;99.90;;;;;;5045556;28;20287;-69
2023/08/14 05:18:15;;;;;;;1999.90;999.90;;;16.10;99.90;;;;;;5054584;28;20179;-69
2023/08/14 05:20:48;;;;;;;1999.90;999.90;;;16.10;99.90;;;;;;5054351;28;20455;-69
2023/08/14 05:23:15;;;;;;;1999.90;999.90;;;16.20;99.90;;;;;;5050876;28;20432;-69
2023/08/14 05:25:44;;;;;;;1999.90;999.90;;;16.30;99.90;;;;;;5046148;28;20448;-69
2023/08/14 05:28:10;;;;;;;1999.90;999.90;;;16.30;99.90;;;;;;5043843;28;20799;-68
2023/08/14 05:30:36;;;;;;;1999.90;999.90;;;16.40;99.90;;;;;;5051978;28;20417;-69
2023/08/14 05:33:01;;;;;;;1999.90;999.90;;;16.50;99.90;;;;;;5043524;28;20897;-69
2023/08/14 05:35:28;;;;;;;1999.90;999.90;;;16.60;99.90;;;;;;5052343;28;20539;-69
2023/08/14 05:37:56;;;;;;;1999.90;999.90;;;16.70;99.90;;;;;;5052250;28;20208;-69
2023/08/14 05:40:22;;;;;;;1999.90;999.90;;;16.80;99.90;;;;;;5050851;28;20987;-69
2023/08/14 05:43:11;;;;;;;1999.90;999.90;;;16.90;99.90;;;;;;5044299;28;20418;-69
2023/08/14 05:45:42;;;;;;;1999.90;999.90;;;17.00;99.90;;;;;;5038046;28;20425;-69
2023/08/14 05:48:08;;;;;;;1999.90;999.90;;;17.10;99.90;;;;;;5032246;28;20415;-69
2023/08/14 05:50:35;;;;;;;1999.90;999.90;;;17.20;99.90;;;;;;5032050;28;20431;-70
2023/08/14 05:53:03;;;;;;;1999.90;999.90;;;17.30;99.90;;;;;;5031818;28;20414;-69
2023/08/14 05:55:34;;;;;;;1999.90;999.90;;;17.40;99.90;;;;;;5041046;28;20410;-69
2023/08/14 05:58:00;;;;;;;1999.90;999.90;;;17.50;99.90;;;;;;5043636;28;20420;-68
2023/08/14 06:00:26;;;;;;;1999.90;999.90;;;17.60;99.90;;;;;;5051890;28;20869;-70
2023/08/14 06:02:52;;;;;;;1999.90;999.90;;;17.70;99.90;;;;;;5051543;28;20398;-69
2023/08/14 06:05:18;;;;;;;1999.90;999.90;;;17.80;99.90;;;;;;5051788;28;20410;-69
2023/08/14 06:07:44;;;;;;;1999.90;999.90;;;17.80;99.90;;;;;;5051861;28;20443;-68
2023/08/14 06:10:10;;;;;;;1999.90;999.90;;;17.90;99.90;;;;;;5051257;28;20512;-69
2023/08/14 06:12:35;;;;;;;1999.90;999.90;;;17.90;99.90;;;;;;5046567;28;20174;-69
2023/08/14 06:15:01;;;;;;;1999.90;999.90;;;18.00;99.90;;;;;;5048475;28;20169;-69
2023/08/14 06:17:28;;;;;;;1999.90;999.90;;;18.00;99.90;;;;;;5051704;28;20179;-69
2023/08/14 06:19:54;;;;;;;1999.90;999.90;;;18.00;99.90;;;;;;5055162;28;20906;-69
2023/08/14 06:22:20;;;;;;;1999.90;999.90;;;18.00;99.90;;;;;;5055466;28;20486;-69
2023/08/14 06:24:46;;;;;;;1999.90;999.90;;;18.20;99.90;;;;;;5055701;28;20257;-69
2023/08/14 06:27:11;;;;;;;1999.90;999.90;;;18.10;99.90;;;;;;5054223;28;20920;-69
2023/08/14 06:29:37;;;;;;;1999.90;999.90;;;18.20;99.90;;;;;;5050837;28;20519;-69
2023/08/14 06:32:05;;;;;;;1999.90;999.90;;;18.30;99.90;;;;;;5052446;28;20660;-70
2023/08/14 06:34:30;;;;;;;1999.90;999.90;;;18.50;99.90;;;;;;5056016;28;20175;-69
2023/08/14 06:36:56;;;;;;;1999.90;999.90;;;18.60;99.90;;;;;;5055894;28;21099;-70
2023/08/14 06:39:21;;;;;;;1999.90;999.90;;;18.80;99.90;;;;;;5055553;28;20214;-70
2023/08/14 06:41:47;;;;;;;1999.90;999.90;;;18.90;99.90;;;;;;5055111;28;20651;-69
2023/08/14 06:44:13;;;;;;;1999.90;999.90;;;19.00;99.90;;;;;;5047256;28;20531;-70
2023/08/14 06:46:38;;;;;;;1999.90;999.90;;;19.00;99.90;;;;;;5055569;28;20169;-69
2023/08/14 06:49:04;;;;;;;1999.90;999.90;;;19.10;99.90;;;;;;5055167;28;20677;-70
2023/08/14 06:51:31;;;;;;;1999.90;999.90;;;19.20;99.90;;;;;;5046548;28;20607;-70
2023/08/14 06:53:57;;;;;;;1999.90;999.90;;;19.40;99.90;;;;;;5055167;28;20198;-69
2023/08/14 06:56:22;;;;;;;1999.90;999.90;;;19.50;99.90;;;;;;5055071;28;20851;-70
2023/08/14 06:58:48;;;;;;;1999.90;999.90;;;19.50;99.90;;;;;;5054316;28;20300;-69
2023/08/14 07:01:14;;;;;;;1999.90;999.90;;;19.60;99.90;;;;;;5046543;28;20261;-70
2023/08/14 07:03:39;;;;;;;1999.90;999.90;;;19.70;99.90;;;;;;5050031;28;20171;-69
2023/08/14 07:06:05;;;;;;;1999.90;999.90;;;19.70;99.90;;;;;;5052792;28;20466;-70
2023/08/14 07:08:30;;;;;;;1999.90;999.90;;;19.80;99.90;;;;;;5054953;28;20567;-69
2023/08/14 07:10:56;;;;;;;1999.90;999.90;;;19.80;99.90;;;;;;5047468;28;20202;-69
2023/08/14 07:13:22;;;;;;;1999.90;999.90;;;20.00;99.90;;;;;;5054339;28;20627;-69
2023/08/14 07:15:48;;;;;;;1999.90;999.90;;;20.10;99.90;;;;;;5047240;28;20418;-70
2023/08/14 07:18:18;;;;;;;1999.90;999.90;;;20.30;99.90;;;;;;5055290;28;20191;-69
2023/08/14 07:20:45;;;;;;;1999.90;999.90;;;20.50;99.90;;;;;;5048945;28;20294;-69
2023/08/14 07:23:12;;;;;;;1999.90;999.90;;;20.60;99.90;;;;;;5053045;28;20420;-69
2023/08/14 07:25:38;;;;;;;1999.90;999.90;;;20.80;99.90;;;;;;5055272;28;20895;-69
2023/08/14 07:28:04;;;;;;;1999.90;999.90;;;21.00;99.90;;;;;;5054335;28;20407;-70
2023/08/14 07:30:30;;;;;;;1999.90;999.90;;;21.10;99.90;;;;;;5049459;28;20466;-70
2023/08/14 07:32:55;;;;;;;1999.90;999.90;;;21.20;99.90;;;;;;5050016;28;20580;-70
2023/08/14 07:35:21;;;;;;;1999.90;999.90;;;21.40;99.90;;;;;;5045924;28;20179;-70
2023/08/14 07:37:47;;;;;;;1999.90;999.90;;;21.40;99.90;;;;;;5054453;28;20231;-69
2023/08/14 07:40:12;;;;;;;1999.90;999.90;;;21.50;99.90;;;;;;5054309;28;20220;-69
2023/08/14 07:42:38;;;;;;;1999.90;999.90;;;21.50;99.90;;;;;;5053998;28;20178;-70
2023/08/14 07:45:04;;;;;;;1999.90;999.90;;;21.40;99.90;;;;;;5053122;28;20539;-69
2023/08/14 07:47:30;;;;;;;1999.90;999.90;;;21.30;99.90;;;;;;5046917;28;20180;-69
2023/08/14 07:49:55;;;;;;;1999.90;999.90;;;21.40;99.90;;;;;;5050042;28;20872;-70
2023/08/14 07:52:21;;;;;;;1999.90;999.90;;;21.40;99.90;;;;;;5045614;28;20185;-70
2023/08/14 07:54:46;;;;;;;1999.90;999.90;;;21.50;99.90;;;;;;5054252;28;20174;-70
2023/08/14 07:57:12;;;;;;;1999.90;999.90;;;21.60;99.90;;;;;;5047366;28;20259;-70
2023/08/14 07:59:37;;;;;;;1999.90;999.90;;;21.60;99.90;;;;;;5047849;28;20210;-77
2023/08/14 08:02:03;;;;;;;1999.90;999.90;;;21.60;99.90;;;;;;5056981;28;20205;-70
2023/08/14 08:04:36;;;;;;;1999.90;999.90;;;21.60;99.90;;;;;;5067863;28;20171;-72
2023/08/14 08:07:02;;;;;;;1999.90;999.90;;;21.60;99.90;;;;;;5050176;28;20164;-71
2023/08/14 08:09:28;;;;;;;1999.90;999.90;;;21.70;99.90;;;;;;5052413;28;20448;-70
2023/08/14 08:11:53;;;;;;;1999.90;999.90;;;21.70;99.90;;;;;;5072138;28;20410;-70
2023/08/14 08:14:19;;;;;;;1999.90;999.90;;;21.80;99.90;;;;;;5056289;28;20191;-73
2023/08/14 08:16:45;;;;;;;1999.90;999.90;;;21.80;99.90;;;;;;5055962;28;20557;-71
2023/08/14 08:19:10;;;;;;;1999.90;999.90;;;21.90;99.90;;;;;;5051156;28;20201;-72
2023/08/14 08:21:36;;;;;;;1999.90;999.90;;;21.90;99.90;;;;;;5061710;28;20220;-71
2023/08/14 08:24:04;;;;;;;1999.90;999.90;;;22.00;99.90;;;;;;5037395;28;20206;-71
2023/08/14 08:26:30;;;;;;;1999.90;999.90;;;22.10;99.90;;;;;;5040455;28;20430;-72
2023/08/14 08:28:56;;;;;;;1999.90;999.90;;;22.30;99.90;;;;;;5056386;28;20772;-72
2023/08/14 08:31:22;;;;;;;1999.90;999.90;;;22.30;99.90;;;;;;5035737;28;20239;-71
2023/08/14 08:33:48;;;;;;;1999.90;999.90;;;22.40;99.90;;;;;;5052559;28;20684;-73
2023/08/14 08:36:17;;;;;;;1999.90;999.90;;;22.50;99.90;;;;;;5050845;28;20425;-72
2023/08/14 08:38:46;;;;;;;1999.90;999.90;;;22.50;99.90;;;;;;5044359;28;20445;-72
2023/08/14 08:41:35;;;;;;;1999.90;999.90;;;22.60;99.90;;;;;;5048018;28;20436;-71
2023/08/14 08:44:15;;;;;;;1999.90;999.90;;;22.60;99.90;;;;;;5034102;28;20442;-73
2023/08/14 08:46:50;;;;;;;1999.90;999.90;;;22.60;99.90;;;;;;5034964;28;20448;-73
2023/08/14 08:49:17;;;;;;;1999.90;999.90;;;22.70;99.90;;;;;;5034728;28;20426;-73
2023/08/14 08:51:44;;;;;;;1999.90;999.90;;;22.70;99.90;;;;;;5034167;28;20969;-73
2023/08/14 08:54:11;;;;;;;1999.90;999.90;;;22.90;99.90;;;;;;5046898;28;20425;-72
2023/08/14 08:56:37;;;;;;;1999.90;999.90;;;23.00;99.90;;;;;;5053202;28;20411;-72
2023/08/14 08:59:04;;;;;;;1999.90;999.90;;;23.00;99.90;;;;;;5043932;28;20832;-72
2023/08/14 09:01:29;;;;;;;1999.90;999.90;;;23.00;99.90;;;;;;5052431;28;20218;-71
2023/08/14 09:03:55;;;;;;;1999.90;999.90;;;23.10;99.90;;;;;;5045962;28;20944;-72
2023/08/14 09:06:21;;;;;;;1999.90;999.90;;;23.10;99.90;;;;;;5053776;28;20229;-72
2023/08/14 09:08:47;;;;;;;1999.90;999.90;;;23.10;99.90;;;;;;5050585;28;20405;-71
2023/08/14 09:11:13;;;;;;;1999.90;999.90;;;23.20;99.90;;;;;;5048946;28;20455;-72
2023/08/14 09:13:38;;;;;;;1999.90;999.90;;;23.40;99.90;;;;;;5034538;28;20654;-72
2023/08/14 09:16:04;;;;;;;1999.90;999.90;;;23.50;99.90;;;;;;5034937;28;20537;-72
2023/08/14 09:18:30;;;;;;;1999.90;999.90;;;23.70;99.90;;;;;;5033896;28;20196;-72
2023/08/14 09:20:57;;;;;;;1999.90;999.90;;;24.10;99.90;;;;;;5032114;28;20203;-72
2023/08/14 09:23:23;;;;;;;1999.90;999.90;;;24.40;99.90;;;;;;5033843;28;20384;-72
2023/08/14 09:25:50;;;;;;;1999.90;999.90;;;24.70;99.90;;;;;;5033742;28;20415;-72
2023/08/14 09:28:17;;;;;;;1999.90;999.90;;;25.10;99.90;;;;;;5045862;28;20175;-72
2023/08/14 09:30:43;;;;;;;1999.90;999.90;;;25.40;99.90;;;;;;5041496;28;20380;-69
2023/08/14 09:33:11;;;;;;;1999.90;999.90;;;25.60;99.90;;;;;;5060051;28;20406;-68
2023/08/14 09:35:38;;;;;;;1999.90;999.90;;;25.60;99.90;;;;;;5063357;28;21055;-68
2023/08/14 09:38:04;;;;;;;1999.90;999.90;;;25.70;99.90;;;;;;5048701;28;20508;-69
2023/08/14 09:40:31;;;;;;;1999.90;999.90;;;25.80;99.90;;;;;;5034255;28;21109;-68
2023/08/14 09:42:57;;;;;;;1999.90;999.90;;;26.00;99.90;;;;;;5048116;28;20414;-69
2023/08/14 09:45:27;;;;;;;1999.90;999.90;;;26.00;99.90;;;;;;5042633;28;20432;-69
2023/08/14 09:48:07;;;;;;;1999.90;999.90;;;26.00;99.90;;;;;;5042439;28;21039;-67
2023/08/14 09:50:35;;;;;;;1999.90;999.90;;;26.10;99.90;;;;;;5047626;28;20424;-69
2023/08/14 09:53:00;;;;;;;1999.90;999.90;;;26.20;99.90;;;;;;5047739;28;20473;-69
2023/08/14 09:55:29;;;;;;;1999.90;999.90;;;26.30;99.90;;;;;;5047539;28;20433;-68
2023/08/14 09:57:58;;;;;;;1999.90;999.90;;;26.40;99.90;;;;;;5047671;28;20397;-68
2023/08/14 10:00:29;;;;;;;1999.90;999.90;;;26.50;95.50;;;;;;5048055;28;20425;-67
2023/08/14 10:02:55;;;;;;;1999.90;999.90;;;26.50;93.80;;;;;;5048112;28;20765;-68
2023/08/14 10:05:23;;;;;;;1999.90;999.90;;;26.60;93.90;;;;;;5047468;28;20416;-69
2023/08/14 10:07:50;;;;;;;1999.90;999.90;;;26.70;92.80;;;;;;5047543;28;20389;-67
2023/08/14 10:10:18;;;;;;;1999.90;999.90;;;26.80;94.50;;;;;;5048321;28;20416;-69
2023/08/14 10:12:50;;;;;;;1999.90;999.90;;;26.80;91.60;;;;;;5047503;28;20927;-69
2023/08/14 10:15:21;;;;;;;1999.90;999.90;;;27.00;94.70;;;;;;5047526;28;20396;-69
2023/08/14 10:17:58;;;;;;;1999.90;999.90;;;27.10;95.10;;;;;;5047463;28;20467;-69
2023/08/14 10:20:25;;;;;;;1999.90;999.90;;;27.20;92.40;;;;;;5047313;28;20425;-69
2023/08/14 10:22:52;;;;;;;1999.90;999.90;;;27.20;92.50;;;;;;5047863;28;20385;-68
2023/08/14 10:25:20;;;;;;;1999.90;999.90;;;27.30;90.50;;;;;;5047232;28;20438;-69
2023/08/14 10:27:46;;;;;;;1999.90;999.90;;;27.30;91.10;;;;;;5046918;28;20479;-69
2023/08/14 10:30:13;;;;;;;1999.90;999.90;;;27.20;92.10;;;;;;5048013;28;20425;-68
2023/08/14 10:32:39;;;;;;;1999.90;999.90;;;27.20;91.90;;;;;;5046940;28;20396;-69
2023/08/14 10:35:06;;;;;;;1999.90;999.90;;;27.10;90.00;;;;;;5047162;28;20385;-68
2023/08/14 10:37:48;;;;;;;1999.90;999.90;;;27.30;92.00;;;;;;5047987;28;20476;-69
2023/08/14 10:40:22;;;;;;;1999.90;999.90;;;27.40;88.20;;;;;;5047775;28;20416;-68
2023/08/14 10:42:51;;;;;;;1999.90;999.90;;;27.40;88.50;;;;;;5047776;28;20453;-67
2023/08/14 10:45:18;;;;;;;1999.90;999.90;;;27.40;88.30;;;;;;5047581;28;20428;-69
2023/08/14 10:47:44;;;;;;;1999.90;999.90;;;27.30;90.10;;;;;;5047131;28;20476;-68
2023/08/14 10:50:23;;;;;;;1999.90;999.90;;;27.30;91.60;;;;;;5047815;28;20408;-69
2023/08/14 10:52:51;;;;;;;1999.90;999.90;;;27.30;93.90;;;;;;5047503;28;20942;-68
2023/08/14 10:55:38;;;;;;;1999.90;999.90;;;27.30;93.60;;;;;;5047481;28;20513;-69
2023/08/14 10:58:29;;;;;;;1999.90;999.90;;;27.30;89.90;;;;;;5047372;28;20503;-67
2023/08/14 11:00:55;;;;;;;1999.90;999.90;;;27.40;89.60;;;;;;5046765;28;20863;-69
2023/08/14 11:03:21;;;;;;;1999.90;999.90;;;27.30;91.30;;;;;;5047517;28;20412;-69
2023/08/14 11:05:47;;;;;;;1999.90;999.90;;;27.10;92.00;;;;;;5050468;28;20493;-69
2023/08/14 11:08:14;;;;;;;1999.90;999.90;;;27.10;95.10;;;;;;5050743;28;20384;-69
2023/08/14 11:10:41;;;;;;;1999.90;999.90;;;27.20;95.00;;;;;;5051245;28;20416;-68
2023/08/14 11:13:08;;;;;;;1999.90;999.90;;;27.40;94.60;;;;;;5050704;28;20472;-70
2023/08/14 11:15:41;;;;;;;1999.90;999.90;;;27.50;94.90;;;;;;5050418;28;20438;-69
2023/08/14 11:18:11;;;;;;;1999.90;999.90;;;27.60;93.40;;;;;;5050574;28;20392;-69
2023/08/14 11:20:38;;;;;;;1999.90;999.90;;;27.70;93.80;;;;;;5050809;28;20432;-68
2023/08/14 11:23:05;;;;;;;1999.90;999.90;;;27.90;92.40;;;;;;5050601;28;20395;-69
2023/08/14 11:25:32;;;;;;;1999.90;999.90;;;28.30;94.70;;;;;;5050269;28;20467;-69
2023/08/14 11:27:58;;;;;;;1999.90;999.90;;;28.60;95.30;;;;;;5051097;28;20410;-69
2023/08/14 11:30:25;;;;;;;1999.90;999.90;;;29.00;95.50;;;;;;5050570;28;21061;-69
2023/08/14 11:32:52;;;;;;;1999.90;999.90;;;29.20;94.00;;;;;;5049909;28;20186;-69
2023/08/14 11:35:18;;;;;;;1999.90;999.90;;;29.40;91.50;;;;;;5050831;28;20381;-69
2023/08/14 11:37:47;;;;;;;1999.90;999.90;;;29.40;88.90;;;;;;5050312;28;20437;-69
2023/08/14 11:40:15;;;;;;;1999.90;999.90;;;29.10;88.10;;;;;;5050133;28;20430;-69
2023/08/14 11:42:42;;;;;;;1999.90;999.90;;;28.90;88.80;;;;;;5050350;28;20849;-68
2023/08/14 11:45:08;;;;;;;1999.90;999.90;;;28.90;92.90;;;;;;5050546;28;20757;-69
2023/08/14 11:47:39;;;;;;;1999.90;999.90;;;29.10;94.40;;;;;;5049896;28;20409;-69
2023/08/14 11:50:08;;;;;;;1999.90;999.90;;;29.50;94.90;;;;;;5049975;28;20789;-67
2023/08/14 11:52:36;;;;;;;1999.90;999.90;;;30.10;93.20;;;;;;5050368;28;20406;-69
2023/08/14 11:55:02;;;;;;;1999.90;999.90;;;30.30;86.80;;;;;;5049633;28;20402;-70
2023/08/14 11:57:29;;;;;;;1999.90;999.90;;;30.40;80.90;;;;;;5049774;28;20416;-68